sensor_id;sensor_type;location;lat;lon;timestamp;temperature;humidity
33931;DHT22;20215;53.130;6.408;2022-11-20T00:01:49;8.40;76.70
33931;DHT22;20215;53.130;6.408;2022-11-20T00:04:15;8.40;76.70
33931;DHT22;20215;53.130;6.408;2022-11-20T00:06:40;8.40;76.70
33931;DHT22;20215;53.130;6.408;2022-11-20T00:09:06;8.40;76.70
33931;DHT22;20215;53.130;6.408;2022-11-20T00:11:33;8.40;76.60
33931;DHT22;20215;53.130;6.408;2022-11-20T00:14:01;8.40;76.60
33931;DHT22;20215;53.130;6.408;2022-11-20T00:16:27;8.40;76.70
33931;DHT22;20215;53.130;6.408;2022-11-20T00:18:54;8.40;76.80
33931;DHT22;20215;53.130;6.408;2022-11-20T00:21:22;8.40;76.70
33931;DHT22;20215;53.130;6.408;2022-11-20T00:23:49;8.40;76.70
33931;DHT22;20215;53.130;6.408;2022-11-20T00:26:17;8.40;76.80
33931;DHT22;20215;53.130;6.408;2022-11-20T00:28:43;8.40;76.70
33931;DHT22;20215;53.130;6.408;2022-11-20T00:31:14;8.40;76.70
33931;DHT22;20215;53.130;6.408;2022-11-20T00:33:41;8.40;76.70
33931;DHT22;20215;53.130;6.408;2022-11-20T00:36:19;8.40;76.80
33931;DHT22;20215;53.130;6.408;2022-11-20T00:38:45;8.40;76.70
33931;DHT22;20215;53.130;6.408;2022-11-20T00:41:14;8.40;76.80
33931;DHT22;20215;53.130;6.408;2022-11-20T00:43:40;8.40;76.80
33931;DHT22;20215;53.130;6.408;2022-11-20T00:46:20;8.40;76.80
33931;DHT22;20215;53.130;6.408;2022-11-20T00:48:46;8.40;77.60
33931;DHT22;20215;53.130;6.408;2022-11-20T00:51:13;8.40;77.10
33931;DHT22;20215;53.130;6.408;2022-11-20T00:53:39;8.40;77.10
33931;DHT22;20215;53.130;6.408;2022-11-20T00:56:07;8.40;76.90
33931;DHT22;20215;53.130;6.408;2022-11-20T00:58:35;8.40;76.90
33931;DHT22;20215;53.130;6.408;2022-11-20T01:01:03;8.40;77.00
33931;DHT22;20215;53.130;6.408;2022-11-20T01:03:31;8.40;76.90
33931;DHT22;20215;53.130;6.408;2022-11-20T01:06:06;8.40;76.70
33931;DHT22;20215;53.130;6.408;2022-11-20T01:08:34;8.40;76.70
33931;DHT22;20215;53.130;6.408;2022-11-20T01:11:08;8.40;76.70
33931;DHT22;20215;53.130;6.408;2022-11-20T01:13:35;8.40;76.60
33931;DHT22;20215;53.130;6.408;2022-11-20T01:18:33;8.40;77.00
33931;DHT22;20215;53.130;6.408;2022-11-20T01:21:06;8.30;77.10
33931;DHT22;20215;53.130;6.408;2022-11-20T01:23:34;8.40;76.60
33931;DHT22;20215;53.130;6.408;2022-11-20T01:26:03;8.40;76.80
33931;DHT22;20215;53.130;6.408;2022-11-20T01:28:30;8.40;77.10
33931;DHT22;20215;53.130;6.408;2022-11-20T01:30:56;8.40;76.80
33931;DHT22;20215;53.130;6.408;2022-11-20T01:33:22;8.40;76.90
33931;DHT22;20215;53.130;6.408;2022-11-20T01:35:47;8.40;77.00
33931;DHT22;20215;53.130;6.408;2022-11-20T01:38:15;8.40;77.10
33931;DHT22;20215;53.130;6.408;2022-11-20T01:40:40;8.40;77.10
33931;DHT22;20215;53.130;6.408;2022-11-20T01:43:19;8.40;77.50
33931;DHT22;20215;53.130;6.408;2022-11-20T01:48:37;8.40;76.90
33931;DHT22;20215;53.130;6.408;2022-11-20T01:51:06;8.40;77.00
33931;DHT22;20215;53.130;6.408;2022-11-20T01:53:36;8.40;77.10
33931;DHT22;20215;53.130;6.408;2022-11-20T01:56:04;8.40;77.10
33931;DHT22;20215;53.130;6.408;2022-11-20T01:58:34;8.40;77.00
33931;DHT22;20215;53.130;6.408;2022-11-20T02:01:00;8.40;77.10
33931;DHT22;20215;53.130;6.408;2022-11-20T02:03:26;8.40;77.30
33931;DHT22;20215;53.130;6.408;2022-11-20T02:06:35;8.40;77.20
33931;DHT22;20215;53.130;6.408;2022-11-20T02:08:52;8.40;76.80
33931;DHT22;20215;53.130;6.408;2022-11-20T02:11:18;8.40;77.10
33931;DHT22;20215;53.130;6.408;2022-11-20T02:13:44;8.40;76.80
33931;DHT22;20215;53.130;6.408;2022-11-20T02:16:23;8.40;76.90
33931;DHT22;20215;53.130;6.408;2022-11-20T02:18:50;8.30;76.90
33931;DHT22;20215;53.130;6.408;2022-11-20T02:26:31;8.40;76.50
33931;DHT22;20215;53.130;6.408;2022-11-20T02:29:00;8.30;76.70
33931;DHT22;20215;53.130;6.408;2022-11-20T02:31:26;8.40;77.10
33931;DHT22;20215;53.130;6.408;2022-11-20T02:33:56;8.30;76.70
33931;DHT22;20215;53.130;6.408;2022-11-20T02:36:22;8.40;76.40
33931;DHT22;20215;53.130;6.408;2022-11-20T02:38:49;8.40;77.00
33931;DHT22;20215;53.130;6.408;2022-11-20T02:41:15;8.40;77.30
33931;DHT22;20215;53.130;6.408;2022-11-20T02:43:40;8.40;77.40
33931;DHT22;20215;53.130;6.408;2022-11-20T02:46:07;8.40;77.50
33931;DHT22;20215;53.130;6.408;2022-11-20T02:48:33;8.40;77.70
33931;DHT22;20215;53.130;6.408;2022-11-20T02:50:59;8.30;77.50
33931;DHT22;20215;53.130;6.408;2022-11-20T02:53:24;8.40;77.40
33931;DHT22;20215;53.130;6.408;2022-11-20T02:55:50;8.40;77.70
33931;DHT22;20215;53.130;6.408;2022-11-20T02:58:15;8.30;77.60
33931;DHT22;20215;53.130;6.408;2022-11-20T03:00:41;8.40;77.10
33931;DHT22;20215;53.130;6.408;2022-11-20T03:03:06;8.30;77.00
33931;DHT22;20215;53.130;6.408;2022-11-20T03:05:32;8.40;77.20
33931;DHT22;20215;53.130;6.408;2022-11-20T03:07:57;8.40;77.00
33931;DHT22;20215;53.130;6.408;2022-11-20T03:10:23;8.40;77.20
33931;DHT22;20215;53.130;6.408;2022-11-20T03:12:53;8.40;77.30
33931;DHT22;20215;53.130;6.408;2022-11-20T03:15:20;8.40;77.20
33931;DHT22;20215;53.130;6.408;2022-11-20T03:17:45;8.40;77.50
33931;DHT22;20215;53.130;6.408;2022-11-20T03:20:11;8.40;77.30
33931;DHT22;20215;53.130;6.408;2022-11-20T03:22:36;8.40;77.50
33931;DHT22;20215;53.130;6.408;2022-11-20T03:25:02;8.40;77.60
33931;DHT22;20215;53.130;6.408;2022-11-20T03:27:32;8.40;77.60
33931;DHT22;20215;53.130;6.408;2022-11-20T03:29:58;8.40;77.40
33931;DHT22;20215;53.130;6.408;2022-11-20T03:32:23;8.40;77.70
33931;DHT22;20215;53.130;6.408;2022-11-20T03:34:49;8.40;77.60
33931;DHT22;20215;53.130;6.408;2022-11-20T03:37:14;8.30;77.70
33931;DHT22;20215;53.130;6.408;2022-11-20T03:39:40;8.40;77.60
33931;DHT22;20215;53.130;6.408;2022-11-20T03:42:05;8.40;77.70
33931;DHT22;20215;53.130;6.408;2022-11-20T03:44:51;8.30;77.40
33931;DHT22;20215;53.130;6.408;2022-11-20T03:47:16;8.40;77.30
33931;DHT22;20215;53.130;6.408;2022-11-20T03:49:42;8.40;77.30
33931;DHT22;20215;53.130;6.408;2022-11-20T03:52:08;8.40;76.80
33931;DHT22;20215;53.130;6.408;2022-11-20T03:54:33;8.40;76.70
33931;DHT22;20215;53.130;6.408;2022-11-20T03:56:59;8.40;76.70
33931;DHT22;20215;53.130;6.408;2022-11-20T03:59:24;8.40;76.90
33931;DHT22;20215;53.130;6.408;2022-11-20T04:01:50;8.30;76.60
33931;DHT22;20215;53.130;6.408;2022-11-20T04:04:15;8.40;77.00
33931;DHT22;20215;53.130;6.408;2022-11-20T04:06:41;8.40;76.90
33931;DHT22;20215;53.130;6.408;2022-11-20T04:09:07;8.40;76.80
33931;DHT22;20215;53.130;6.408;2022-11-20T04:11:34;8.40;77.30
33931;DHT22;20215;53.130;6.408;2022-11-20T04:14:05;8.40;76.90
33931;DHT22;20215;53.130;6.408;2022-11-20T04:16:33;8.30;77.20
33931;DHT22;20215;53.130;6.408;2022-11-20T04:19:01;8.30;77.40
33931;DHT22;20215;53.130;6.408;2022-11-20T04:21:28;8.40;77.20
33931;DHT22;20215;53.130;6.408;2022-11-20T04:23:55;8.40;77.50
33931;DHT22;20215;53.130;6.408;2022-11-20T04:26:22;8.30;77.50
33931;DHT22;20215;53.130;6.408;2022-11-20T04:28:48;8.30;77.40
33931;DHT22;20215;53.130;6.408;2022-11-20T04:31:16;8.30;77.50
33931;DHT22;20215;53.130;6.408;2022-11-20T04:33:42;8.40;77.30
33931;DHT22;20215;53.130;6.408;2022-11-20T04:36:18;8.40;77.00
33931;DHT22;20215;53.130;6.408;2022-11-20T04:38:44;8.40;76.90
33931;DHT22;20215;53.130;6.408;2022-11-20T04:41:18;8.30;76.60
33931;DHT22;20215;53.130;6.408;2022-11-20T04:43:49;8.30;76.40
33931;DHT22;20215;53.130;6.408;2022-11-20T04:46:16;8.40;76.70
33931;DHT22;20215;53.130;6.408;2022-11-20T04:48:41;8.40;76.70
33931;DHT22;20215;53.130;6.408;2022-11-20T04:51:07;8.30;76.80
33931;DHT22;20215;53.130;6.408;2022-11-20T04:53:33;8.40;76.80
33931;DHT22;20215;53.130;6.408;2022-11-20T04:56:00;8.30;76.70
33931;DHT22;20215;53.130;6.408;2022-11-20T04:58:26;8.40;77.30
33931;DHT22;20215;53.130;6.408;2022-11-20T05:00:51;8.30;76.80
33931;DHT22;20215;53.130;6.408;2022-11-20T05:03:17;8.40;76.90
33931;DHT22;20215;53.130;6.408;2022-11-20T05:05:42;8.40;76.90
33931;DHT22;20215;53.130;6.408;2022-11-20T05:08:08;8.40;76.90
33931;DHT22;20215;53.130;6.408;2022-11-20T05:10:34;8.30;76.80
33931;DHT22;20215;53.130;6.408;2022-11-20T05:12:59;8.40;77.00
33931;DHT22;20215;53.130;6.408;2022-11-20T05:15:25;8.40;76.90
33931;DHT22;20215;53.130;6.408;2022-11-20T05:17:51;8.30;77.00
33931;DHT22;20215;53.130;6.408;2022-11-20T05:20:18;8.30;76.90
33931;DHT22;20215;53.130;6.408;2022-11-20T05:22:44;8.40;76.80
33931;DHT22;20215;53.130;6.408;2022-11-20T05:25:10;8.30;76.90
33931;DHT22;20215;53.130;6.408;2022-11-20T05:27:36;8.40;76.60
33931;DHT22;20215;53.130;6.408;2022-11-20T05:30:04;8.30;76.50
33931;DHT22;20215;53.130;6.408;2022-11-20T05:32:29;8.30;76.60
33931;DHT22;20215;53.130;6.408;2022-11-20T05:34:55;8.40;76.70
33931;DHT22;20215;53.130;6.408;2022-11-20T05:37:21;8.40;76.80
33931;DHT22;20215;53.130;6.408;2022-11-20T05:39:46;8.30;76.80
33931;DHT22;20215;53.130;6.408;2022-11-20T05:42:12;8.40;76.80
33931;DHT22;20215;53.130;6.408;2022-11-20T05:44:56;8.40;77.30
33931;DHT22;20215;53.130;6.408;2022-11-20T05:47:22;8.30;76.90
33931;DHT22;20215;53.130;6.408;2022-11-20T05:49:47;8.30;76.80
33931;DHT22;20215;53.130;6.408;2022-11-20T05:52:13;8.30;76.80
33931;DHT22;20215;53.130;6.408;2022-11-20T05:54:38;8.30;76.90
33931;DHT22;20215;53.130;6.408;2022-11-20T05:57:05;8.40;76.90
33931;DHT22;20215;53.130;6.408;2022-11-20T05:59:31;8.30;76.80
33931;DHT22;20215;53.130;6.408;2022-11-20T06:01:56;8.30;76.70
33931;DHT22;20215;53.130;6.408;2022-11-20T06:04:22;8.30;77.00
33931;DHT22;20215;53.130;6.408;2022-11-20T06:06:47;8.30;77.10
33931;DHT22;20215;53.130;6.408;2022-11-20T06:09:13;8.30;76.90
33931;DHT22;20215;53.130;6.408;2022-11-20T06:11:39;8.40;76.90
33931;DHT22;20215;53.130;6.408;2022-11-20T06:14:04;8.40;76.90
33931;DHT22;20215;53.130;6.408;2022-11-20T06:16:30;8.40;76.80
33931;DHT22;20215;53.130;6.408;2022-11-20T06:18:55;8.40;76.90
33931;DHT22;20215;53.130;6.408;2022-11-20T06:21:22;8.40;76.80
33931;DHT22;20215;53.130;6.408;2022-11-20T06:23:49;8.40;76.80
33931;DHT22;20215;53.130;6.408;2022-11-20T06:26:18;8.40;76.80
33931;DHT22;20215;53.130;6.408;2022-11-20T06:28:44;8.40;77.20
33931;DHT22;20215;53.130;6.408;2022-11-20T06:31:12;8.40;77.10
33931;DHT22;20215;53.130;6.408;2022-11-20T06:33:39;8.40;77.00
33931;DHT22;20215;53.130;6.408;2022-11-20T06:36:04;8.40;76.90
33931;DHT22;20215;53.130;6.408;2022-11-20T06:38:30;8.40;76.70
33931;DHT22;20215;53.130;6.408;2022-11-20T06:40:56;8.40;76.80
33931;DHT22;20215;53.130;6.408;2022-11-20T06:43:22;8.40;77.00
33931;DHT22;20215;53.130;6.408;2022-11-20T06:45:56;8.40;76.90
33931;DHT22;20215;53.130;6.408;2022-11-20T06:48:23;8.40;77.00
33931;DHT22;20215;53.130;6.408;2022-11-20T06:50:49;8.40;76.80
33931;DHT22;20215;53.130;6.408;2022-11-20T06:53:15;8.40;77.20
33931;DHT22;20215;53.130;6.408;2022-11-20T06:55:45;8.40;76.90
33931;DHT22;20215;53.130;6.408;2022-11-20T06:58:12;8.40;76.60
33931;DHT22;20215;53.130;6.408;2022-11-20T07:00:37;8.40;76.70
33931;DHT22;20215;53.130;6.408;2022-11-20T07:03:04;8.40;76.70
33931;DHT22;20215;53.130;6.408;2022-11-20T07:05:29;8.30;76.60
33931;DHT22;20215;53.130;6.408;2022-11-20T07:07:58;8.40;76.60
33931;DHT22;20215;53.130;6.408;2022-11-20T07:10:24;8.40;76.70
33931;DHT22;20215;53.130;6.408;2022-11-20T07:12:54;8.40;77.00
33931;DHT22;20215;53.130;6.408;2022-11-20T07:15:21;8.40;76.70
33931;DHT22;20215;53.130;6.408;2022-11-20T07:17:47;8.40;76.70
33931;DHT22;20215;53.130;6.408;2022-11-20T07:20:14;8.40;76.90
33931;DHT22;20215;53.130;6.408;2022-11-20T07:22:40;8.40;77.10
33931;DHT22;20215;53.130;6.408;2022-11-20T07:25:06;8.40;77.30
33931;DHT22;20215;53.130;6.408;2022-11-20T07:27:32;8.40;77.20
33931;DHT22;20215;53.130;6.408;2022-11-20T07:29:58;8.40;77.50
33931;DHT22;20215;53.130;6.408;2022-11-20T07:32:23;8.40;77.50
33931;DHT22;20215;53.130;6.408;2022-11-20T07:34:49;8.40;77.30
33931;DHT22;20215;53.130;6.408;2022-11-20T07:37:15;8.40;77.20
33931;DHT22;20215;53.130;6.408;2022-11-20T07:39:41;8.40;77.40
33931;DHT22;20215;53.130;6.408;2022-11-20T07:42:07;8.40;76.90
33931;DHT22;20215;53.130;6.408;2022-11-20T07:44:33;8.40;76.40
33931;DHT22;20215;53.130;6.408;2022-11-20T07:47:00;8.40;76.50
33931;DHT22;20215;53.130;6.408;2022-11-20T07:49:25;8.40;76.40
33931;DHT22;20215;53.130;6.408;2022-11-20T07:51:51;8.40;76.80
33931;DHT22;20215;53.130;6.408;2022-11-20T07:54:22;8.40;76.80
33931;DHT22;20215;53.130;6.408;2022-11-20T07:56:48;8.40;76.50
33931;DHT22;20215;53.130;6.408;2022-11-20T07:59:14;8.40;76.70
33931;DHT22;20215;53.130;6.408;2022-11-20T08:01:41;8.40;76.70
33931;DHT22;20215;53.130;6.408;2022-11-20T08:04:07;8.40;76.90
33931;DHT22;20215;53.130;6.408;2022-11-20T08:06:34;8.40;76.70
33931;DHT22;20215;53.130;6.408;2022-11-20T08:08:59;8.40;77.00
33931;DHT22;20215;53.130;6.408;2022-11-20T08:11:25;8.30;76.60
33931;DHT22;20215;53.130;6.408;2022-11-20T08:14:09;8.30;77.40
33931;DHT22;20215;53.130;6.408;2022-11-20T08:16:47;8.40;76.90
33931;DHT22;20215;53.130;6.408;2022-11-20T08:19:15;8.30;76.80
33931;DHT22;20215;53.130;6.408;2022-11-20T08:21:41;8.30;76.80
33931;DHT22;20215;53.130;6.408;2022-11-20T08:24:08;8.40;77.20
33931;DHT22;20215;53.130;6.408;2022-11-20T08:26:35;8.40;77.20
33931;DHT22;20215;53.130;6.408;2022-11-20T08:29:01;8.30;76.60
33931;DHT22;20215;53.130;6.408;2022-11-20T08:31:27;8.40;76.40
33931;DHT22;20215;53.130;6.408;2022-11-20T08:33:53;8.40;75.90
33931;DHT22;20215;53.130;6.408;2022-11-20T08:36:19;8.30;76.20
33931;DHT22;20215;53.130;6.408;2022-11-20T08:38:49;8.30;76.50
33931;DHT22;20215;53.130;6.408;2022-11-20T08:41:15;8.40;76.50
33931;DHT22;20215;53.130;6.408;2022-11-20T08:46:21;8.30;76.20
33931;DHT22;20215;53.130;6.408;2022-11-20T08:48:47;8.40;75.70
33931;DHT22;20215;53.130;6.408;2022-11-20T08:51:13;8.30;75.60
33931;DHT22;20215;53.130;6.408;2022-11-20T08:53:39;8.30;76.00
33931;DHT22;20215;53.130;6.408;2022-11-20T08:56:06;8.30;76.20
33931;DHT22;20215;53.130;6.408;2022-11-20T08:58:31;8.30;76.20
33931;DHT22;20215;53.130;6.408;2022-11-20T09:00:57;8.30;76.20
33931;DHT22;20215;53.130;6.408;2022-11-20T09:03:23;8.30;76.00
33931;DHT22;20215;53.130;6.408;2022-11-20T09:05:49;8.30;76.40
33931;DHT22;20215;53.130;6.408;2022-11-20T09:08:14;8.30;76.60
33931;DHT22;20215;53.130;6.408;2022-11-20T09:10:40;8.40;76.30
33931;DHT22;20215;53.130;6.408;2022-11-20T09:13:06;8.40;76.30
33931;DHT22;20215;53.130;6.408;2022-11-20T09:15:32;8.40;76.20
33931;DHT22;20215;53.130;6.408;2022-11-20T09:18:00;8.40;76.20
33931;DHT22;20215;53.130;6.408;2022-11-20T09:20:27;8.40;76.00
33931;DHT22;20215;53.130;6.408;2022-11-20T09:22:54;8.40;76.40
33931;DHT22;20215;53.130;6.408;2022-11-20T09:25:20;8.40;76.20
33931;DHT22;20215;53.130;6.408;2022-11-20T09:27:45;8.40;76.40
33931;DHT22;20215;53.130;6.408;2022-11-20T09:30:13;8.40;76.10
33931;DHT22;20215;53.130;6.408;2022-11-20T09:32:39;8.40;76.20
33931;DHT22;20215;53.130;6.408;2022-11-20T09:35:05;8.40;76.50
33931;DHT22;20215;53.130;6.408;2022-11-20T09:37:31;8.40;76.60
33931;DHT22;20215;53.130;6.408;2022-11-20T09:39:57;8.40;76.90
33931;DHT22;20215;53.130;6.408;2022-11-20T09:45:39;8.40;76.80
33931;DHT22;20215;53.130;6.408;2022-11-20T09:48:15;8.40;76.80
33931;DHT22;20215;53.130;6.408;2022-11-20T09:56:17;8.40;76.20
33931;DHT22;20215;53.130;6.408;2022-11-20T09:58:52;8.40;76.30
33931;DHT22;20215;53.130;6.408;2022-11-20T10:01:21;8.40;76.30
33931;DHT22;20215;53.130;6.408;2022-11-20T10:06:37;8.40;76.80
33931;DHT22;20215;53.130;6.408;2022-11-20T10:23:17;8.50;77.10
33931;DHT22;20215;53.130;6.408;2022-11-20T10:26:03;8.50;77.30
33931;DHT22;20215;53.130;6.408;2022-11-20T10:31:08;8.50;77.00
33931;DHT22;20215;53.130;6.408;2022-11-20T10:33:39;8.60;77.00
33931;DHT22;20215;53.130;6.408;2022-11-20T10:36:17;8.50;77.00
33931;DHT22;20215;53.130;6.408;2022-11-20T10:38:51;8.50;77.00
33931;DHT22;20215;53.130;6.408;2022-11-20T10:41:27;8.60;77.00
33931;DHT22;20215;53.130;6.408;2022-11-20T10:44:16;8.60;76.80
33931;DHT22;20215;53.130;6.408;2022-11-20T10:47:01;8.60;76.90
33931;DHT22;20215;53.130;6.408;2022-11-20T10:49:30;8.60;76.70
33931;DHT22;20215;53.130;6.408;2022-11-20T10:52:32;8.60;76.70
33931;DHT22;20215;53.130;6.408;2022-11-20T11:00:35;8.70;76.60
33931;DHT22;20215;53.130;6.408;2022-11-20T11:03:00;8.60;76.50
33931;DHT22;20215;53.130;6.408;2022-11-20T11:07:56;8.70;76.30
33931;DHT22;20215;53.130;6.408;2022-11-20T11:10:36;8.70;76.50
33931;DHT22;20215;53.130;6.408;2022-11-20T11:13:07;8.70;76.40
33931;DHT22;20215;53.130;6.408;2022-11-20T11:15:40;8.70;76.40
33931;DHT22;20215;53.130;6.408;2022-11-20T11:18:10;8.70;76.00
33931;DHT22;20215;53.130;6.408;2022-11-20T11:20:36;8.80;76.20
33931;DHT22;20215;53.130;6.408;2022-11-20T11:23:02;8.70;76.10
33931;DHT22;20215;53.130;6.408;2022-11-20T11:27:59;8.80;76.10
33931;DHT22;20215;53.130;6.408;2022-11-20T11:30:27;8.70;75.90
33931;DHT22;20215;53.130;6.408;2022-11-20T11:33:09;8.80;76.00
33931;DHT22;20215;53.130;6.408;2022-11-20T11:35:45;8.80;76.00
33931;DHT22;20215;53.130;6.408;2022-11-20T11:38:36;8.80;76.10
33931;DHT22;20215;53.130;6.408;2022-11-20T11:41:00;8.80;76.00
33931;DHT22;20215;53.130;6.408;2022-11-20T11:43:29;8.80;76.00
33931;DHT22;20215;53.130;6.408;2022-11-20T11:46:34;8.90;76.00
33931;DHT22;20215;53.130;6.408;2022-11-20T11:49:14;8.90;75.80
33931;DHT22;20215;53.130;6.408;2022-11-20T11:54:37;8.90;75.90
33931;DHT22;20215;53.130;6.408;2022-11-20T12:00:01;8.90;75.90
33931;DHT22;20215;53.130;6.408;2022-11-20T12:05:31;8.90;75.70
33931;DHT22;20215;53.130;6.408;2022-11-20T12:08:21;8.90;75.80
33931;DHT22;20215;53.130;6.408;2022-11-20T12:10:56;8.90;75.50
33931;DHT22;20215;53.130;6.408;2022-11-20T12:13:37;8.90;75.50
33931;DHT22;20215;53.130;6.408;2022-11-20T12:16:05;9.00;75.80
33931;DHT22;20215;53.130;6.408;2022-11-20T12:18:31;9.00;75.80
33931;DHT22;20215;53.130;6.408;2022-11-20T12:40:01;9.20;75.40
33931;DHT22;20215;53.130;6.408;2022-11-20T12:45:14;9.20;75.20
33931;DHT22;20215;53.130;6.408;2022-11-20T13:07:43;9.20;75.40
33931;DHT22;20215;53.130;6.408;2022-11-20T13:10:47;9.20;75.10
33931;DHT22;20215;53.130;6.408;2022-11-20T13:18:49;9.20;75.30
33931;DHT22;20215;53.130;6.408;2022-11-20T13:21:15;9.20;75.20
33931;DHT22;20215;53.130;6.408;2022-11-20T13:23:41;9.20;75.60
33931;DHT22;20215;53.130;6.408;2022-11-20T13:26:16;9.20;75.70
33931;DHT22;20215;53.130;6.408;2022-11-20T13:28:42;9.30;75.60
33931;DHT22;20215;53.130;6.408;2022-11-20T13:31:47;9.20;75.50
33931;DHT22;20215;53.130;6.408;2022-11-20T13:34:23;9.30;74.40
33931;DHT22;20215;53.130;6.408;2022-11-20T13:36:52;9.30;75.10
33931;DHT22;20215;53.130;6.408;2022-11-20T13:39:25;9.30;75.40
33931;DHT22;20215;53.130;6.408;2022-11-20T13:44:43;9.30;75.10
33931;DHT22;20215;53.130;6.408;2022-11-20T13:47:25;9.30;75.20
33931;DHT22;20215;53.130;6.408;2022-11-20T13:49:55;9.30;75.30
33931;DHT22;20215;53.130;6.408;2022-11-20T13:52:47;9.30;75.40
33931;DHT22;20215;53.130;6.408;2022-11-20T13:55:30;9.30;75.50
33931;DHT22;20215;53.130;6.408;2022-11-20T14:01:05;9.30;75.60
33931;DHT22;20215;53.130;6.408;2022-11-20T14:03:33;9.40;75.50
33931;DHT22;20215;53.130;6.408;2022-11-20T14:06:03;9.30;75.20
33931;DHT22;20215;53.130;6.408;2022-11-20T14:08:42;9.30;74.70
33931;DHT22;20215;53.130;6.408;2022-11-20T14:13:55;9.30;74.80
33931;DHT22;20215;53.130;6.408;2022-11-20T14:16:25;9.40;74.20
33931;DHT22;20215;53.130;6.408;2022-11-20T14:18:51;9.30;75.10
33931;DHT22;20215;53.130;6.408;2022-11-20T14:21:28;9.30;75.30
33931;DHT22;20215;53.130;6.408;2022-11-20T14:24:10;9.30;75.40
33931;DHT22;20215;53.130;6.408;2022-11-20T14:26:38;9.30;76.00
33931;DHT22;20215;53.130;6.408;2022-11-20T14:29:22;9.30;75.80
33931;DHT22;20215;53.130;6.408;2022-11-20T14:31:52;9.30;75.10
33931;DHT22;20215;53.130;6.408;2022-11-20T14:34:21;9.30;75.40
33931;DHT22;20215;53.130;6.408;2022-11-20T14:36:47;9.20;75.40
33931;DHT22;20215;53.130;6.408;2022-11-20T14:39:31;9.30;75.40
33931;DHT22;20215;53.130;6.408;2022-11-20T14:41:57;9.30;75.40
33931;DHT22;20215;53.130;6.408;2022-11-20T14:44:30;9.30;75.40
33931;DHT22;20215;53.130;6.408;2022-11-20T14:46:58;9.30;75.60
33931;DHT22;20215;53.130;6.408;2022-11-20T14:49:26;9.20;75.60
33931;DHT22;20215;53.130;6.408;2022-11-20T14:52:00;9.30;75.50
33931;DHT22;20215;53.130;6.408;2022-11-20T14:54:26;9.20;75.50
33931;DHT22;20215;53.130;6.408;2022-11-20T14:56:56;9.20;75.60
33931;DHT22;20215;53.130;6.408;2022-11-20T14:59:24;9.20;75.60
33931;DHT22;20215;53.130;6.408;2022-11-20T15:02:06;9.20;75.60
33931;DHT22;20215;53.130;6.408;2022-11-20T15:04:45;9.20;75.50
33931;DHT22;20215;53.130;6.408;2022-11-20T15:07:11;9.20;75.50
33931;DHT22;20215;53.130;6.408;2022-11-20T15:09:36;9.20;76.00
33931;DHT22;20215;53.130;6.408;2022-11-20T15:12:03;9.20;75.90
33931;DHT22;20215;53.130;6.408;2022-11-20T15:14:30;9.20;76.30
33931;DHT22;20215;53.130;6.408;2022-11-20T15:16:58;9.20;76.30
33931;DHT22;20215;53.130;6.408;2022-11-20T15:19:25;9.30;77.20
33931;DHT22;20215;53.130;6.408;2022-11-20T15:21:51;9.30;76.00
33931;DHT22;20215;53.130;6.408;2022-11-20T15:24:17;9.30;76.40
33931;DHT22;20215;53.130;6.408;2022-11-20T15:26:43;9.30;76.20
33931;DHT22;20215;53.130;6.408;2022-11-20T15:29:14;9.30;76.70
33931;DHT22;20215;53.130;6.408;2022-11-20T15:31:40;9.40;77.30
33931;DHT22;20215;53.130;6.408;2022-11-20T15:34:11;9.40;77.50
33931;DHT22;20215;53.130;6.408;2022-11-20T15:36:38;9.50;77.50
33931;DHT22;20215;53.130;6.408;2022-11-20T15:39:04;9.50;77.30
33931;DHT22;20215;53.130;6.408;2022-11-20T15:41:33;9.50;77.30
33931;DHT22;20215;53.130;6.408;2022-11-20T15:43:59;9.60;77.20
33931;DHT22;20215;53.130;6.408;2022-11-20T15:46:29;9.60;77.10
33931;DHT22;20215;53.130;6.408;2022-11-20T15:48:56;9.60;77.00
33931;DHT22;20215;53.130;6.408;2022-11-20T15:51:28;9.60;76.30
33931;DHT22;20215;53.130;6.408;2022-11-20T15:53:55;9.60;76.60
33931;DHT22;20215;53.130;6.408;2022-11-20T15:56:21;9.60;76.40
33931;DHT22;20215;53.130;6.408;2022-11-20T15:58:47;9.60;76.00
33931;DHT22;20215;53.130;6.408;2022-11-20T16:01:14;9.60;75.40
33931;DHT22;20215;53.130;6.408;2022-11-20T16:03:41;9.60;76.20
33931;DHT22;20215;53.130;6.408;2022-11-20T16:06:06;9.60;76.50
33931;DHT22;20215;53.130;6.408;2022-11-20T16:08:32;9.60;76.60
33931;DHT22;20215;53.130;6.408;2022-11-20T16:10:58;9.70;76.60
33931;DHT22;20215;53.130;6.408;2022-11-20T16:13:24;9.70;76.30
33931;DHT22;20215;53.130;6.408;2022-11-20T16:16:21;9.70;76.50
33931;DHT22;20215;53.130;6.408;2022-11-20T16:18:48;9.70;76.20
33931;DHT22;20215;53.130;6.408;2022-11-20T16:21:14;9.60;76.40
33931;DHT22;20215;53.130;6.408;2022-11-20T16:23:40;9.70;76.20
33931;DHT22;20215;53.130;6.408;2022-11-20T16:26:15;9.70;76.20
33931;DHT22;20215;53.130;6.408;2022-11-20T16:28:42;9.70;76.30
33931;DHT22;20215;53.130;6.408;2022-11-20T16:31:11;9.60;76.30
33931;DHT22;20215;53.130;6.408;2022-11-20T16:33:37;9.70;76.30
33931;DHT22;20215;53.130;6.408;2022-11-20T16:36:10;9.60;75.70
33931;DHT22;20215;53.130;6.408;2022-11-20T16:38:36;9.60;75.30
33931;DHT22;20215;53.130;6.408;2022-11-20T16:41:02;9.60;74.90
33931;DHT22;20215;53.130;6.408;2022-11-20T16:43:28;9.60;75.50
33931;DHT22;20215;53.130;6.408;2022-11-20T16:45:53;9.60;75.60
33931;DHT22;20215;53.130;6.408;2022-11-20T16:48:19;9.60;76.50
33931;DHT22;20215;53.130;6.408;2022-11-20T16:50:54;9.60;75.70
33931;DHT22;20215;53.130;6.408;2022-11-20T16:53:21;9.60;76.50
33931;DHT22;20215;53.130;6.408;2022-11-20T16:55:47;9.60;76.40
33931;DHT22;20215;53.130;6.408;2022-11-20T16:58:13;9.60;76.30
33931;DHT22;20215;53.130;6.408;2022-11-20T17:00:39;9.60;76.30
33931;DHT22;20215;53.130;6.408;2022-11-20T17:03:05;9.60;76.30
33931;DHT22;20215;53.130;6.408;2022-11-20T17:05:32;9.60;76.20
33931;DHT22;20215;53.130;6.408;2022-11-20T17:07:59;9.60;75.00
33931;DHT22;20215;53.130;6.408;2022-11-20T17:10:24;9.60;75.60
33931;DHT22;20215;53.130;6.408;2022-11-20T17:12:50;9.60;76.00
33931;DHT22;20215;53.130;6.408;2022-11-20T17:15:16;9.60;76.40
33931;DHT22;20215;53.130;6.408;2022-11-20T17:17:42;9.60;76.10
33931;DHT22;20215;53.130;6.408;2022-11-20T17:20:09;9.60;76.00
33931;DHT22;20215;53.130;6.408;2022-11-20T17:22:36;9.60;75.90
33931;DHT22;20215;53.130;6.408;2022-11-20T17:25:01;9.60;76.20
33931;DHT22;20215;53.130;6.408;2022-11-20T17:27:27;9.60;76.50
33931;DHT22;20215;53.130;6.408;2022-11-20T17:29:53;9.60;76.80
33931;DHT22;20215;53.130;6.408;2022-11-20T17:32:19;9.60;77.30
33931;DHT22;20215;53.130;6.408;2022-11-20T17:34:45;9.70;76.60
33931;DHT22;20215;53.130;6.408;2022-11-20T17:37:11;9.70;77.20
33931;DHT22;20215;53.130;6.408;2022-11-20T17:39:37;9.70;77.00
33931;DHT22;20215;53.130;6.408;2022-11-20T17:42:04;9.80;76.80
33931;DHT22;20215;53.130;6.408;2022-11-20T17:44:48;9.80;76.30
33931;DHT22;20215;53.130;6.408;2022-11-20T17:47:13;9.80;77.30
33931;DHT22;20215;53.130;6.408;2022-11-20T17:49:39;9.80;76.80
33931;DHT22;20215;53.130;6.408;2022-11-20T17:52:04;9.80;76.70